Latest Coastal Weather Observations for Lockhart River

IDQ60701

Issued at 9:55 pm EST Wednesday 23 April 2014 (issued every 10 minutes, with the page automatically refreshed every 10 minutes)

About coastal observations | Map of coastal stations | Coastal observations for QLD | Marine services | Other Formats
Station Details ID: 028008 Name: LOCKHART RIVER AIRPORT Lat: -12.79 Lon: 143.30 Height: 18.5 m
Data from the previous 72 hours. | See also: Recent months at Lockhart River
Date/Time
EST
Temp

°C
Wind Pressure Rain
since 9am
mm
Weather Cloud Vis
km
Sea
Height
m
Swell
Dir
 
Speed
knots
Gust
knots
hPa Trend Height
m
Period
s
Dir
23/09:30pm 24.9 CALM 0 0 1011.2 - 0.2 - - - - - - -
23/09:00pm 25.3 CALM 0 0 1011.0 - 0.2 - - - - - - -
23/08:30pm 25.6 SSW 3 4 1011.0 - 0.2 - - - - - - -
23/08:00pm 25.9 SE 4 5 1010.4 - 0.2 - - - - - - -
23/07:30pm 26.1 ESE 4 5 1010.1 - 0.2 - - - - - - -
23/07:00pm 26.6 ESE 5 7 1010.0 - 0.2 - - - - - - -
23/06:30pm 26.9 ESE 6 8 1009.7 - 0.2 - - - - - - -
23/06:00pm 27.2 ESE 7 9 1009.2 - 0.2 - - - - - - -
23/05:30pm 27.8 ESE 8 11 1009.1 - 0.2 - - - - - - -
23/05:00pm 28.1 SE 9 11 1009.0 - 0.2 - - - - - - -
23/04:30pm 28.3 ESE 9 11 1008.8 - 0.2 - - - - - - -
23/04:00pm 28.2 ESE 9 12 1009.0 - 0.2 - - - - - - -
23/03:30pm 28.2 ESE 8 12 1008.9 - 0.2 - - - - - - -
23/03:00pm 28.8 E 8 12 1009.1 - 0.2 Fine Mostly cloudy 20 - - - -
23/02:30pm 28.6 E 9 13 1009.4 - 0.2 - - - - - - -
23/02:00pm 28.8 E 8 12 1009.6 - 0.2 - - - - - - -
23/01:30pm 29.3 E 9 12 1010.0 - 0.2 - - - - - - -
23/01:00pm 28.8 ESE 11 16 1010.3 - 0.2 - - - - - - -
23/12:30pm 28.7 ESE 12 16 1010.6 - 0.2 - - - - - - -
23/12:00pm 29.2 E 11 15 1010.7 - 0.2 - - - - - - -
23/11:30am 28.5 E 12 18 1011.0 - 0.2 - - - - - - -
23/11:00am 28.8 E 8 13 1011.5 - 0.0 - - - - - - -
23/10:30am 28.7 E 11 17 1011.9 - 0.0 - - - - - - -
23/10:00am 28.1 ESE 11 17 1012.1 - 0.0 - - - - - - -
23/09:30am 27.9 ESE 10 17 1012.0 - 0.0 - - - - - - -
23/09:00am 27.7 E 10 15 1011.5 - 4.4 Fine Mostly cloudy 15 - - - -
23/08:30am 27.3 E 9 17 1011.1 - 4.4 - - - - - - -
23/08:00am 27.2 ESE 10 13 1011.1 - 4.4 - - - - - - -
23/07:30am 26.7 E 8 13 1011.0 - 4.4 - - - - - - -
23/07:00am 26.2 ESE 6 9 1010.8 - 4.4 - - - - - - -
23/06:30am 26.1 E 7 9 1010.4 - 4.4 - - - - - - -
23/06:00am 26.4 ESE 8 11 1010.0 - 4.4 - - - - - - -
23/05:30am 26.5 ESE 9 13 1009.6 - 4.4 - - - - - - -
23/05:00am 26.3 ESE 9 15 1009.1 - 4.4 - - - - - - -
23/04:30am 26.1 E 9 12 1009.2 - 4.4 - - - - - - -
23/04:00am 26.0 E 8 12 1009.2 - 4.4 - - - - - - -
23/03:30am 26.0 ESE 9 16 1009.2 - 4.4 - - - - - - -
23/03:00am 25.6 ESE 12 20 1009.3 - 4.4 - - - - - - -
23/02:30am 26.5 ESE 9 13 1009.5 - 3.4 - - - - - - -
23/02:00am 26.6 ESE 9 14 1009.8 - 3.4 - - - - - - -
23/01:30am 26.4 ESE 9 14 1010.2 - 3.4 - - - - - - -
23/01:00am 26.4 ESE 9 16 1010.4 - 3.4 - - - - - - -
23/12:30am 26.8 ESE 11 19 1010.8 - 3.4 - - - - - - -
23/12:00am 26.8 ESE 8 15 1011.1 - 3.4 - - - - - - -
 
Date/Time
EST
Temp

°C
Wind Pressure Rain
since 9am
mm
Weather Cloud Vis
km
Sea
Height
m
Swell
Dir
 
Speed
knots
Gust
knots
hPa Trend Height
m
Period
s
Dir
22/11:30pm 26.9 ESE 11 17 1011.4 - 3.4 - - - - - - -
22/11:00pm 26.7 ESE 9 14 1011.6 - 3.4 - - - - - - -
22/10:30pm 26.6 ESE 8 13 1011.8 - 3.4 - - - - - - -
22/10:00pm 26.5 E 11 17 1011.8 - 3.4 - - - - - - -
22/09:30pm 27.0 ESE 10 16 1011.8 - 3.4 - - - - - - -
22/09:00pm 27.1 ESE 9 13 1011.6 - 3.4 - - - - - - -
22/08:30pm 27.1 ESE 10 15 1011.8 - 3.4 - - - - - - -
22/08:00pm 27.0 ESE 9 12 1011.4 - 3.4 - - - - - - -
22/07:30pm 27.1 ESE 10 13 1011.2 - 3.4 - - - - - - -
22/07:00pm 27.0 ESE 9 11 1011.0 - 3.4 - - - - - - -
22/06:30pm 27.0 ESE 8 13 1011.0 - 3.4 - - - - - - -
22/06:00pm 27.1 ESE 10 14 1010.6 - 3.4 - - - - - - -
22/05:30pm 26.9 ESE 10 15 1010.5 - 3.4 - - - - - - -
22/05:00pm 26.8 ESE 9 13 1010.2 - 3.4 - - - - - - -
22/04:30pm 27.2 ESE 9 12 1010.1 - 3.4 - - - - - - -
22/04:00pm 27.1 ESE 9 14 1009.9 - 3.4 - - - - - - -
22/03:30pm 27.2 ESE 9 15 1009.7 - 3.4 - - - - - - -
22/03:00pm 26.7 ESE 9 12 1009.8 - 3.4 Fine Cloudy 10 - - - -
22/02:30pm 26.2 ESE 12 19 1010.3 - 3.4 - - - - - - -
22/02:00pm 26.6 E 9 18 1010.3 - 3.4 - - - - - - -
22/01:30pm 26.7 E 8 14 1010.7 - 2.8 - - - - - - -
22/01:00pm 27.3 ESE 10 14 1010.9 - 2.2 - - - - - - -
22/12:30pm 27.7 E 11 19 1011.2 - 0.8 - - - - - - -
22/12:00pm 28.0 ESE 11 - 1011.5 - - - - - - - - -
22/10:30am 27.7 E 10 15 1013.1 - 0.0 - - - - - - -
22/10:00am 27.3 ESE 8 14 1013.2 - 0.0 - - - - - - -
22/09:30am 27.4 ESE 10 16 1012.9 - 0.0 - - - - - - -
22/09:00am 27.3 ESE 10 15 1012.8 - 7.4 - Cloudy 15 - - - -
22/08:30am 27.1 ESE 10 14 1012.6 - 7.4 - - - - - - -
22/08:00am 27.1 E 9 14 1012.5 - 7.4 - - - - - - -
22/07:30am 26.9 ESE 8 13 1012.2 - 7.4 - - - - - - -
22/07:00am 27.0 ESE 7 9 1011.8 - 7.4 - - - - - - -
22/06:30am 26.8 ESE 10 15 1011.2 - 7.4 - - - - - - -
22/06:00am 26.7 ESE 9 13 1010.6 - 7.4 - - - - - - -
22/05:30am 26.9 E 11 17 1010.7 - 7.4 - - - - - - -
22/05:00am 26.8 E 8 12 1010.9 - 7.4 - - - - - - -
22/04:30am 26.8 E 8 13 1010.7 - 7.4 - - - - - - -
22/04:00am 26.7 ESE 8 12 1010.7 - 7.4 - - - - - - -
22/03:30am 26.6 ESE 9 12 1010.7 - 7.4 - - - - - - -
22/03:00am 26.6 ESE 9 13 1010.7 - 7.4 - - - - - - -
22/02:30am 26.4 ESE 9 15 1010.8 - 7.4 - - - - - - -
22/02:00am 26.3 ESE 8 12 1010.9 - 7.4 - - - - - - -
22/01:30am 26.4 ESE 8 11 1011.1 - 7.4 - - - - - - -
22/01:00am 26.4 ESE 6 10 1011.6 - 7.4 - - - - - - -
22/12:30am 26.3 ESE 7 11 1011.7 - 7.4 - - - - - - -
22/12:00am 26.3 - 9 13 1011.5 - 7.4 - - - - - - -
 
Date/Time
EST
Temp

°C
Wind Pressure Rain
since 9am
mm
Weather Cloud Vis
km
Sea
Height
m
Swell
Dir
 
Speed
knots
Gust
knots
hPa Trend Height
m
Period
s
Dir
21/11:30pm 26.5 ESE 8 11 1011.9 - 5.6 - - - - - - -
21/11:00pm 26.5 ESE 9 14 1011.8 - 5.6 - - - - - - -
21/10:30pm 26.4 ESE 7 10 1011.9 - 5.2 - - - - - - -
21/10:00pm 26.3 ESE 8 11 1012.1 - 5.2 - - - - - - -
21/09:30pm 26.0 ESE 7 11 1012.0 - 5.2 - - - - - - -
21/09:00pm 25.2 S 4 5 1012.0 - 5.2 - - - - - - -
21/08:30pm 25.1 S 5 7 1012.0 - 5.2 - - - - - - -
21/08:00pm 25.2 SSE 7 10 1011.8 - 5.2 - - - - - - -
21/07:30pm 25.2 ESE 11 15 1011.6 - 5.2 - - - - - - -
21/07:00pm 26.1 ESE 7 11 1011.1 - 3.0 - - - - - - -
21/06:30pm 26.6 SE 8 11 1010.9 - 1.0 - - - - - - -
21/06:00pm 26.4 SE 8 12 1010.5 - 1.0 - - - - - - -
21/05:30pm 26.4 ESE 9 14 1010.4 - 1.0 - - - - - - -
21/05:00pm 26.7 ESE 10 15 1010.0 - 1.0 - - - - - - -
21/04:30pm 27.4 ESE 10 17 1009.8 - 0.8 - - - - - - -
21/04:00pm 27.6 ESE 10 16 1009.7 - 0.8 - - - - - - -
21/03:30pm 26.4 ESE 8 10 1009.7 - 0.8 - - - - - - -
21/03:00pm 27.2 ESE 11 16 1009.4 - 0.2 Drizzle Cloudy 15 - - - -
21/02:30pm 28.8 E 13 19 1009.5 - 0.2 - - - - - - -
21/02:00pm 29.4 E 13 20 1009.7 - 0.2 - - - - - - -
21/01:30pm 29.0 E 14 21 1009.8 - 0.2 - - - - - - -
21/01:00pm 29.0 E 14 21 1010.1 - 0.0 - - - - - - -
21/12:30pm 28.7 ESE 16 20 1010.6 - 0.0 - - - - - - -
21/12:17pm 28.1 ESE 15 26 1010.9 - 0.0 - - - - - - -
21/12:00pm 29.0 ESE 14 22 1011.1 - 0.0 - - - - - - -
21/11:30am 28.9 ESE 14 20 1011.7 - 0.0 - - - - - - -
21/11:00am 28.3 ESE 15 22 1012.0 - 0.0 - - - - - - -
21/10:30am 27.8 ESE 12 21 1012.4 - 0.0 - - - - - - -
21/10:00am 27.4 SE 15 20 1012.3 - 0.0 - - - - - - -
21/09:30am 26.4 ESE 14 19 1012.3 - 0.0 - - - - - - -
21/09:00am 26.8 ESE 13 17 1012.0 - 0.2 Fine Cloudy 15 - - - -
21/08:30am 26.3 ESE 14 23 1012.0 - 0.2 - - - - - - -
21/08:00am 25.6 SE 14 21 1011.7 - 0.2 - - - - - - -
21/07:30am 25.5 ESE 10 13 1011.4 - 0.0 - - - - - - -
21/07:00am 25.4 SE 9 12 1011.1 - 0.0 - - - - - - -
21/06:30am 25.2 SE 11 16 1010.7 - 0.0 - - - - - - -
21/06:00am 25.5 SE 12 18 1010.3 - 0.0 - - - - - - -
21/05:30am 25.6 SE 10 16 1010.3 - 0.0 - - - - - - -
21/05:00am 25.4 SE 9 13 1010.2 - 0.0 - - - - - - -
21/04:30am 25.2 SE 10 13 1010.1 - 0.0 - - - - - - -
21/04:00am 24.9 SE 9 12 1010.1 - 0.0 - - - - - - -
21/03:30am 24.7 SE 9 12 1009.9 - 0.0 - - - - - - -
21/03:03am 25.4 SE 15 25 1009.9 - 0.0 - - - - - - -
21/03:00am 26.2 SE 13 18 1009.7 - 0.0 - - - - - - -
21/02:30am 25.9 SE 11 16 1009.9 - 0.0 - - - - - - -
21/02:00am 26.1 SE 11 15 1010.3 - 0.0 - - - - - - -
21/01:30am 25.8 SE 11 15 1010.4 - 0.0 - - - - - - -
21/01:00am 26.4 SE 13 19 1010.6 - 0.0 - - - - - - -
21/12:30am 26.3 SE 11 16 1010.9 - 0.0 - - - - - - -
21/12:00am 26.3 SE 10 14 1011.3 - 0.0 - - - - - - -
 
Date/Time
EST
Temp

°C
Wind Pressure Rain
since 9am
mm
Weather Cloud Vis
km
Sea
Height
m
Swell
Dir
 
Speed
knots
Gust
knots
hPa Trend Height
m
Period
s
Dir
20/11:30pm 26.3 SE 12 16 1011.5 - 0.0 - - - - - - -
20/11:00pm 26.2 SE 10 14 1011.7 - 0.0 - - - - - - -
20/10:30pm 26.0 SE 9 14 1011.8 - 0.0 - - - - - - -
20/10:00pm 26.0 SE 12 17 1011.8 - 0.0 - - - - - - -

Other Formats:

Comma delimited format used in spreadsheet applications
http://www.bom.gov.au/fwo/IDQ60701/IDQ60701.94186.axf

JavaScript Object Notation format (JSON) in row-major order
http://www.bom.gov.au/fwo/IDQ60701/IDQ60701.94186.json